Rossiter, Pennsylvania
Current Conditions -  °F | °C
As of 11:55 PM on Saturday 22 Nov 2014 (Local Time) from KIDI Reporting Station
Overcast Overcast  
Wind Chill: 44°   Ceiling: 6000
Heat Index: 46°   Visibility: 10mi
Dew Point: 32°   Wind: 5mph
Humidity: 57%   Direction: 220°SW
Pressure: 30.14"   Gusts: NA
Location:  40.89°N, 78.93°W
Report Text: KIDI 230455Z AUTO 22004KT 10SM FEW032 SCT044 OVC060 08/00 A3014 RMK A01
Loading
Personal Weather Stations






























Interactive Weather Map New forecast layout! Learn more

10-Day Weather Forecast

Advertisements
Track Severe Weather on mobile